sensor_id;sensor_type;location;lat;lon;timestamp;P1;durP1;ratioP1;P2;durP2;ratioP2
1831;SDS011;1680;48.106;11.708;2022-08-21T00:01:07;3.23;;;2.50;;
1831;SDS011;1680;48.106;11.708;2022-08-21T00:03:36;3.47;;;2.93;;
1831;SDS011;1680;48.106;11.708;2022-08-21T00:06:02;3.20;;;2.90;;
1831;SDS011;1680;48.106;11.708;2022-08-21T00:08:29;2.57;;;2.40;;
1831;SDS011;1680;48.106;11.708;2022-08-21T00:10:56;3.20;;;2.83;;
1831;SDS011;1680;48.106;11.708;2022-08-21T00:13:23;2.73;;;2.47;;
1831;SDS011;1680;48.106;11.708;2022-08-21T00:15:51;3.10;;;2.80;;
1831;SDS011;1680;48.106;11.708;2022-08-21T00:18:18;3.37;;;2.77;;
1831;SDS011;1680;48.106;11.708;2022-08-21T00:20:45;2.63;;;2.43;;
1831;SDS011;1680;48.106;11.708;2022-08-21T00:23:12;3.20;;;2.90;;
1831;SDS011;1680;48.106;11.708;2022-08-21T00:25:40;2.90;;;2.70;;
1831;SDS011;1680;48.106;11.708;2022-08-21T00:28:07;3.27;;;2.97;;
1831;SDS011;1680;48.106;11.708;2022-08-21T00:30:34;4.27;;;3.20;;
1831;SDS011;1680;48.106;11.708;2022-08-21T00:33:02;2.73;;;2.53;;
1831;SDS011;1680;48.106;11.708;2022-08-21T00:35:31;4.53;;;3.00;;
1831;SDS011;1680;48.106;11.708;2022-08-21T00:37:58;3.70;;;2.60;;
1831;SDS011;1680;48.106;11.708;2022-08-21T00:40:25;2.60;;;2.40;;
1831;SDS011;1680;48.106;11.708;2022-08-21T00:42:52;3.50;;;2.50;;
1831;SDS011;1680;48.106;11.708;2022-08-21T00:45:19;2.70;;;2.50;;
1831;SDS011;1680;48.106;11.708;2022-08-21T00:47:45;3.20;;;2.90;;
1831;SDS011;1680;48.106;11.708;2022-08-21T00:50:13;3.50;;;3.20;;
1831;SDS011;1680;48.106;11.708;2022-08-21T00:52:40;2.90;;;2.57;;
1831;SDS011;1680;48.106;11.708;2022-08-21T00:55:08;3.10;;;2.90;;
1831;SDS011;1680;48.106;11.708;2022-08-21T00:57:36;2.73;;;2.47;;
1831;SDS011;1680;48.106;11.708;2022-08-21T01:00:06;2.50;;;2.30;;
1831;SDS011;1680;48.106;11.708;2022-08-21T01:02:33;2.70;;;2.40;;
1831;SDS011;1680;48.106;11.708;2022-08-21T01:05:00;2.70;;;2.43;;
1831;SDS011;1680;48.106;11.708;2022-08-21T01:07:28;2.60;;;2.40;;
1831;SDS011;1680;48.106;11.708;2022-08-21T01:09:55;2.50;;;2.30;;
1831;SDS011;1680;48.106;11.708;2022-08-21T01:12:21;4.10;;;2.00;;
1831;SDS011;1680;48.106;11.708;2022-08-21T01:14:49;2.50;;;2.30;;
1831;SDS011;1680;48.106;11.708;2022-08-21T01:17:16;2.40;;;2.20;;
1831;SDS011;1680;48.106;11.708;2022-08-21T01:19:43;2.50;;;2.30;;
1831;SDS011;1680;48.106;11.708;2022-08-21T01:22:11;2.00;;;1.90;;
1831;SDS011;1680;48.106;11.708;2022-08-21T01:24:38;3.40;;;2.30;;
1831;SDS011;1680;48.106;11.708;2022-08-21T01:27:04;2.43;;;2.20;;
1831;SDS011;1680;48.106;11.708;2022-08-21T01:29:33;2.40;;;2.20;;
1831;SDS011;1680;48.106;11.708;2022-08-21T01:32:03;2.83;;;2.20;;
1831;SDS011;1680;48.106;11.708;2022-08-21T01:34:30;2.10;;;2.00;;
1831;SDS011;1680;48.106;11.708;2022-08-21T01:36:57;2.50;;;2.30;;
1831;SDS011;1680;48.106;11.708;2022-08-21T01:39:25;2.17;;;2.00;;
1831;SDS011;1680;48.106;11.708;2022-08-21T01:41:52;3.50;;;2.30;;
1831;SDS011;1680;48.106;11.708;2022-08-21T01:44:20;3.00;;;2.30;;
1831;SDS011;1680;48.106;11.708;2022-08-21T01:46:47;1.97;;;1.87;;
1831;SDS011;1680;48.106;11.708;2022-08-21T01:49:14;2.23;;;2.13;;
1831;SDS011;1680;48.106;11.708;2022-08-21T01:51:41;2.73;;;1.90;;
1831;SDS011;1680;48.106;11.708;2022-08-21T01:54:08;2.27;;;2.13;;
1831;SDS011;1680;48.106;11.708;2022-08-21T01:56:37;2.40;;;2.20;;
1831;SDS011;1680;48.106;11.708;2022-08-21T01:59:04;2.67;;;2.00;;
1831;SDS011;1680;48.106;11.708;2022-08-21T02:01:31;2.40;;;1.60;;
1831;SDS011;1680;48.106;11.708;2022-08-21T02:03:57;2.10;;;2.00;;
1831;SDS011;1680;48.106;11.708;2022-08-21T02:06:24;2.47;;;2.27;;
1831;SDS011;1680;48.106;11.708;2022-08-21T02:08:51;1.80;;;1.70;;
1831;SDS011;1680;48.106;11.708;2022-08-21T02:11:18;1.73;;;1.63;;
1831;SDS011;1680;48.106;11.708;2022-08-21T02:13:46;3.10;;;1.90;;
1831;SDS011;1680;48.106;11.708;2022-08-21T02:16:13;1.80;;;1.70;;
1831;SDS011;1680;48.106;11.708;2022-08-21T02:18:40;1.90;;;1.80;;
1831;SDS011;1680;48.106;11.708;2022-08-21T02:21:07;2.37;;;2.03;;
1831;SDS011;1680;48.106;11.708;2022-08-21T02:23:34;3.53;;;1.80;;
1831;SDS011;1680;48.106;11.708;2022-08-21T02:26:01;1.87;;;1.70;;
1831;SDS011;1680;48.106;11.708;2022-08-21T02:28:28;2.83;;;1.80;;
1831;SDS011;1680;48.106;11.708;2022-08-21T02:30:56;2.70;;;1.63;;
1831;SDS011;1680;48.106;11.708;2022-08-21T02:33:23;1.90;;;1.80;;
1831;SDS011;1680;48.106;11.708;2022-08-21T02:35:50;1.90;;;1.80;;
1831;SDS011;1680;48.106;11.708;2022-08-21T02:38:18;2.17;;;1.93;;
1831;SDS011;1680;48.106;11.708;2022-08-21T02:40:46;2.87;;;2.10;;
1831;SDS011;1680;48.106;11.708;2022-08-21T02:43:13;2.47;;;1.80;;
1831;SDS011;1680;48.106;11.708;2022-08-21T02:45:40;2.33;;;2.13;;
1831;SDS011;1680;48.106;11.708;2022-08-21T02:48:09;1.77;;;1.67;;
1831;SDS011;1680;48.106;11.708;2022-08-21T02:50:36;1.93;;;1.60;;
1831;SDS011;1680;48.106;11.708;2022-08-21T02:53:04;2.10;;;2.00;;
1831;SDS011;1680;48.106;11.708;2022-08-21T02:55:31;1.93;;;1.70;;
1831;SDS011;1680;48.106;11.708;2022-08-21T02:57:58;2.27;;;2.07;;
1831;SDS011;1680;48.106;11.708;2022-08-21T03:00:26;2.80;;;1.97;;
1831;SDS011;1680;48.106;11.708;2022-08-21T03:02:53;2.00;;;1.90;;
1831;SDS011;1680;48.106;11.708;2022-08-21T03:05:22;1.87;;;1.50;;
1831;SDS011;1680;48.106;11.708;2022-08-21T03:07:49;2.00;;;1.90;;
1831;SDS011;1680;48.106;11.708;2022-08-21T03:10:18;1.97;;;1.87;;
1831;SDS011;1680;48.106;11.708;2022-08-21T03:12:45;1.77;;;1.67;;
1831;SDS011;1680;48.106;11.708;2022-08-21T03:15:12;1.80;;;1.70;;
1831;SDS011;1680;48.106;11.708;2022-08-21T03:17:39;2.00;;;1.60;;
1831;SDS011;1680;48.106;11.708;2022-08-21T03:20:06;1.97;;;1.87;;
1831;SDS011;1680;48.106;11.708;2022-08-21T03:22:34;1.83;;;1.73;;
1831;SDS011;1680;48.106;11.708;2022-08-21T03:25:01;2.20;;;2.00;;
1831;SDS011;1680;48.106;11.708;2022-08-21T03:27:28;2.20;;;2.00;;
1831;SDS011;1680;48.106;11.708;2022-08-21T03:29:56;1.97;;;1.70;;
1831;SDS011;1680;48.106;11.708;2022-08-21T03:32:22;1.90;;;1.80;;
1831;SDS011;1680;48.106;11.708;2022-08-21T03:34:49;2.57;;;1.60;;
1831;SDS011;1680;48.106;11.708;2022-08-21T03:37:16;1.90;;;1.80;;
1831;SDS011;1680;48.106;11.708;2022-08-21T03:39:44;2.37;;;1.90;;
1831;SDS011;1680;48.106;11.708;2022-08-21T03:42:11;2.33;;;2.13;;
1831;SDS011;1680;48.106;11.708;2022-08-21T03:44:38;2.03;;;1.93;;
1831;SDS011;1680;48.106;11.708;2022-08-21T03:47:04;1.80;;;1.70;;
1831;SDS011;1680;48.106;11.708;2022-08-21T03:49:31;2.27;;;2.07;;
1831;SDS011;1680;48.106;11.708;2022-08-21T03:51:58;2.00;;;1.90;;
1831;SDS011;1680;48.106;11.708;2022-08-21T03:54:25;2.77;;;2.07;;
1831;SDS011;1680;48.106;11.708;2022-08-21T03:56:53;2.13;;;2.03;;
1831;SDS011;1680;48.106;11.708;2022-08-21T03:59:19;1.93;;;1.83;;
1831;SDS011;1680;48.106;11.708;2022-08-21T04:01:56;1.90;;;1.80;;
1831;SDS011;1680;48.106;11.708;2022-08-21T04:04:22;2.23;;;1.70;;
1831;SDS011;1680;48.106;11.708;2022-08-21T04:06:49;2.10;;;2.00;;
1831;SDS011;1680;48.106;11.708;2022-08-21T04:09:16;2.23;;;1.97;;
1831;SDS011;1680;48.106;11.708;2022-08-21T04:11:42;2.70;;;2.10;;
1831;SDS011;1680;48.106;11.708;2022-08-21T04:14:11;2.10;;;1.90;;
1831;SDS011;1680;48.106;11.708;2022-08-21T04:16:38;2.00;;;1.90;;
1831;SDS011;1680;48.106;11.708;2022-08-21T04:19:05;1.90;;;1.70;;
1831;SDS011;1680;48.106;11.708;2022-08-21T04:21:32;2.20;;;2.00;;
1831;SDS011;1680;48.106;11.708;2022-08-21T04:23:59;2.50;;;1.87;;
1831;SDS011;1680;48.106;11.708;2022-08-21T04:26:25;1.90;;;1.80;;
1831;SDS011;1680;48.106;11.708;2022-08-21T04:28:52;2.33;;;2.13;;
1831;SDS011;1680;48.106;11.708;2022-08-21T04:31:24;2.10;;;2.00;;
1831;SDS011;1680;48.106;11.708;2022-08-21T04:33:50;2.03;;;1.93;;
1831;SDS011;1680;48.106;11.708;2022-08-21T04:36:17;1.70;;;1.60;;
1831;SDS011;1680;48.106;11.708;2022-08-21T04:38:44;2.00;;;1.90;;
1831;SDS011;1680;48.106;11.708;2022-08-21T04:41:11;2.07;;;1.87;;
1831;SDS011;1680;48.106;11.708;2022-08-21T04:43:37;2.23;;;2.00;;
1831;SDS011;1680;48.106;11.708;2022-08-21T04:46:04;2.93;;;2.13;;
1831;SDS011;1680;48.106;11.708;2022-08-21T04:48:32;2.10;;;2.00;;
1831;SDS011;1680;48.106;11.708;2022-08-21T04:51:00;1.53;;;1.43;;
1831;SDS011;1680;48.106;11.708;2022-08-21T04:53:28;1.70;;;1.60;;
1831;SDS011;1680;48.106;11.708;2022-08-21T04:55:56;1.77;;;1.67;;
1831;SDS011;1680;48.106;11.708;2022-08-21T04:58:24;1.73;;;1.60;;
1831;SDS011;1680;48.106;11.708;2022-08-21T05:00:52;3.40;;;1.93;;
1831;SDS011;1680;48.106;11.708;2022-08-21T05:03:20;1.83;;;1.73;;
1831;SDS011;1680;48.106;11.708;2022-08-21T05:05:48;1.73;;;1.63;;
1831;SDS011;1680;48.106;11.708;2022-08-21T05:08:15;1.77;;;1.67;;
1831;SDS011;1680;48.106;11.708;2022-08-21T05:10:43;1.83;;;1.73;;
1831;SDS011;1680;48.106;11.708;2022-08-21T05:13:10;1.50;;;1.40;;
1831;SDS011;1680;48.106;11.708;2022-08-21T05:15:37;2.80;;;1.73;;
1831;SDS011;1680;48.106;11.708;2022-08-21T05:18:04;2.00;;;1.80;;
1831;SDS011;1680;48.106;11.708;2022-08-21T05:20:31;1.83;;;1.73;;
1831;SDS011;1680;48.106;11.708;2022-08-21T05:23:01;1.80;;;1.70;;
1831;SDS011;1680;48.106;11.708;2022-08-21T05:25:27;2.37;;;1.50;;
1831;SDS011;1680;48.106;11.708;2022-08-21T05:27:54;1.97;;;1.87;;
1831;SDS011;1680;48.106;11.708;2022-08-21T05:30:21;1.97;;;1.87;;
1831;SDS011;1680;48.106;11.708;2022-08-21T05:32:48;1.73;;;1.63;;
1831;SDS011;1680;48.106;11.708;2022-08-21T05:35:14;1.90;;;1.80;;
1831;SDS011;1680;48.106;11.708;2022-08-21T05:37:41;1.63;;;1.53;;
1831;SDS011;1680;48.106;11.708;2022-08-21T05:40:10;2.00;;;1.77;;
1831;SDS011;1680;48.106;11.708;2022-08-21T05:42:36;1.73;;;1.63;;
1831;SDS011;1680;48.106;11.708;2022-08-21T05:45:03;1.77;;;1.67;;
1831;SDS011;1680;48.106;11.708;2022-08-21T05:47:30;2.13;;;1.80;;
1831;SDS011;1680;48.106;11.708;2022-08-21T05:49:56;1.90;;;1.67;;
1831;SDS011;1680;48.106;11.708;2022-08-21T05:52:23;1.87;;;1.77;;
1831;SDS011;1680;48.106;11.708;2022-08-21T05:54:49;2.00;;;1.90;;
1831;SDS011;1680;48.106;11.708;2022-08-21T05:57:20;2.30;;;1.80;;
1831;SDS011;1680;48.106;11.708;2022-08-21T05:59:46;1.80;;;1.70;;
1831;SDS011;1680;48.106;11.708;2022-08-21T06:02:13;1.97;;;1.87;;
1831;SDS011;1680;48.106;11.708;2022-08-21T06:04:40;2.03;;;1.83;;
1831;SDS011;1680;48.106;11.708;2022-08-21T06:07:06;1.80;;;1.70;;
1831;SDS011;1680;48.106;11.708;2022-08-21T06:09:33;1.80;;;1.70;;
1831;SDS011;1680;48.106;11.708;2022-08-21T06:12:02;2.23;;;2.03;;
1831;SDS011;1680;48.106;11.708;2022-08-21T06:14:30;2.13;;;1.80;;
1831;SDS011;1680;48.106;11.708;2022-08-21T06:17:01;2.57;;;1.70;;
1831;SDS011;1680;48.106;11.708;2022-08-21T06:19:27;2.93;;;1.90;;
1831;SDS011;1680;48.106;11.708;2022-08-21T06:21:54;2.47;;;2.27;;
1831;SDS011;1680;48.106;11.708;2022-08-21T06:24:20;2.53;;;2.40;;
1831;SDS011;1680;48.106;11.708;2022-08-21T06:26:47;2.30;;;2.10;;
1831;SDS011;1680;48.106;11.708;2022-08-21T06:29:14;2.40;;;2.20;;
1831;SDS011;1680;48.106;11.708;2022-08-21T06:31:43;2.40;;;2.20;;
1831;SDS011;1680;48.106;11.708;2022-08-21T06:34:10;2.60;;;2.30;;
1831;SDS011;1680;48.106;11.708;2022-08-21T06:36:36;1.80;;;1.70;;
1831;SDS011;1680;48.106;11.708;2022-08-21T06:39:03;2.20;;;1.90;;
1831;SDS011;1680;48.106;11.708;2022-08-21T06:41:30;2.27;;;2.07;;
1831;SDS011;1680;48.106;11.708;2022-08-21T06:43:56;2.33;;;2.20;;
1831;SDS011;1680;48.106;11.708;2022-08-21T06:46:24;2.20;;;2.10;;
1831;SDS011;1680;48.106;11.708;2022-08-21T06:48:52;2.63;;;2.20;;
1831;SDS011;1680;48.106;11.708;2022-08-21T06:51:19;2.57;;;1.90;;
1831;SDS011;1680;48.106;11.708;2022-08-21T06:53:45;2.60;;;2.40;;
1831;SDS011;1680;48.106;11.708;2022-08-21T06:56:12;3.07;;;2.30;;
1831;SDS011;1680;48.106;11.708;2022-08-21T06:58:39;2.97;;;2.13;;
1831;SDS011;1680;48.106;11.708;2022-08-21T07:01:05;2.60;;;2.40;;
1831;SDS011;1680;48.106;11.708;2022-08-21T07:03:33;2.77;;;2.53;;
1831;SDS011;1680;48.106;11.708;2022-08-21T07:06:01;3.20;;;2.50;;
1831;SDS011;1680;48.106;11.708;2022-08-21T07:08:28;2.30;;;2.10;;
1831;SDS011;1680;48.106;11.708;2022-08-21T07:10:55;3.17;;;2.60;;
1831;SDS011;1680;48.106;11.708;2022-08-21T07:13:22;3.10;;;2.80;;
1831;SDS011;1680;48.106;11.708;2022-08-21T07:15:49;2.73;;;2.53;;
1831;SDS011;1680;48.106;11.708;2022-08-21T07:18:15;3.10;;;2.57;;
1831;SDS011;1680;48.106;11.708;2022-08-21T07:20:42;4.40;;;2.80;;
1831;SDS011;1680;48.106;11.708;2022-08-21T07:23:13;3.10;;;2.40;;
1831;SDS011;1680;48.106;11.708;2022-08-21T07:25:41;2.70;;;2.50;;
1831;SDS011;1680;48.106;11.708;2022-08-21T07:28:07;2.90;;;2.70;;
1831;SDS011;1680;48.106;11.708;2022-08-21T07:30:34;3.23;;;2.93;;
1831;SDS011;1680;48.106;11.708;2022-08-21T07:33:00;3.10;;;2.90;;
1831;SDS011;1680;48.106;11.708;2022-08-21T07:35:27;3.03;;;2.83;;
1831;SDS011;1680;48.106;11.708;2022-08-21T07:37:54;3.20;;;2.80;;
1831;SDS011;1680;48.106;11.708;2022-08-21T07:40:22;3.20;;;2.90;;
1831;SDS011;1680;48.106;11.708;2022-08-21T07:42:49;3.03;;;2.83;;
1831;SDS011;1680;48.106;11.708;2022-08-21T07:45:17;3.63;;;3.33;;
1831;SDS011;1680;48.106;11.708;2022-08-21T07:47:43;4.10;;;3.40;;
1831;SDS011;1680;48.106;11.708;2022-08-21T07:50:10;3.90;;;3.60;;
1831;SDS011;1680;48.106;11.708;2022-08-21T07:52:37;3.80;;;3.50;;
1831;SDS011;1680;48.106;11.708;2022-08-21T07:55:04;4.60;;;4.27;;
1831;SDS011;1680;48.106;11.708;2022-08-21T07:57:32;4.47;;;4.17;;
1831;SDS011;1680;48.106;11.708;2022-08-21T07:59:59;4.30;;;4.00;;
1831;SDS011;1680;48.106;11.708;2022-08-21T08:02:26;4.50;;;4.20;;
1831;SDS011;1680;48.106;11.708;2022-08-21T08:04:53;4.67;;;4.13;;
1831;SDS011;1680;48.106;11.708;2022-08-21T08:07:20;4.37;;;4.00;;
1831;SDS011;1680;48.106;11.708;2022-08-21T08:09:47;4.90;;;4.40;;
1831;SDS011;1680;48.106;11.708;2022-08-21T08:12:13;4.23;;;3.80;;
1831;SDS011;1680;48.106;11.708;2022-08-21T08:14:41;3.83;;;3.53;;
1831;SDS011;1680;48.106;11.708;2022-08-21T08:17:07;4.30;;;3.90;;
1831;SDS011;1680;48.106;11.708;2022-08-21T08:19:34;4.20;;;3.90;;
1831;SDS011;1680;48.106;11.708;2022-08-21T08:22:01;5.00;;;4.37;;
1831;SDS011;1680;48.106;11.708;2022-08-21T08:24:27;5.13;;;4.73;;
1831;SDS011;1680;48.106;11.708;2022-08-21T08:26:55;4.67;;;4.13;;
1831;SDS011;1680;48.106;11.708;2022-08-21T08:29:22;5.10;;;4.60;;
1831;SDS011;1680;48.106;11.708;2022-08-21T08:31:50;4.90;;;4.60;;
1831;SDS011;1680;48.106;11.708;2022-08-21T08:34:17;5.27;;;4.50;;
1831;SDS011;1680;48.106;11.708;2022-08-21T08:36:44;4.30;;;4.00;;
1831;SDS011;1680;48.106;11.708;2022-08-21T08:39:11;5.00;;;4.40;;
1831;SDS011;1680;48.106;11.708;2022-08-21T08:41:37;4.90;;;4.50;;
1831;SDS011;1680;48.106;11.708;2022-08-21T08:44:05;4.90;;;4.50;;
1831;SDS011;1680;48.106;11.708;2022-08-21T08:46:34;5.03;;;4.53;;
1831;SDS011;1680;48.106;11.708;2022-08-21T08:49:05;4.90;;;4.50;;
1831;SDS011;1680;48.106;11.708;2022-08-21T08:51:33;5.80;;;4.20;;
1831;SDS011;1680;48.106;11.708;2022-08-21T08:54:04;4.30;;;4.00;;
1831;SDS011;1680;48.106;11.708;2022-08-21T08:56:32;5.10;;;4.70;;
1831;SDS011;1680;48.106;11.708;2022-08-21T08:59:00;4.60;;;4.20;;
1831;SDS011;1680;48.106;11.708;2022-08-21T09:01:27;5.70;;;5.03;;
1831;SDS011;1680;48.106;11.708;2022-08-21T09:03:54;5.17;;;4.77;;
1831;SDS011;1680;48.106;11.708;2022-08-21T09:06:25;5.20;;;4.70;;
1831;SDS011;1680;48.106;11.708;2022-08-21T09:08:59;5.50;;;5.00;;
1831;SDS011;1680;48.106;11.708;2022-08-21T09:11:28;4.67;;;4.27;;
1831;SDS011;1680;48.106;11.708;2022-08-21T09:13:58;4.80;;;4.50;;
1831;SDS011;1680;48.106;11.708;2022-08-21T09:16:29;5.17;;;4.70;;
1831;SDS011;1680;48.106;11.708;2022-08-21T09:19:03;6.17;;;4.90;;
1831;SDS011;1680;48.106;11.708;2022-08-21T09:21:38;5.70;;;5.20;;
1831;SDS011;1680;48.106;11.708;2022-08-21T09:24:12;4.70;;;4.30;;
1831;SDS011;1680;48.106;11.708;2022-08-21T09:26:44;5.57;;;5.00;;
1831;SDS011;1680;48.106;11.708;2022-08-21T09:29:13;4.87;;;4.47;;
1831;SDS011;1680;48.106;11.708;2022-08-21T09:31:43;4.73;;;4.33;;
1831;SDS011;1680;48.106;11.708;2022-08-21T09:34:10;5.37;;;4.60;;
1831;SDS011;1680;48.106;11.708;2022-08-21T09:36:40;4.90;;;4.50;;
1831;SDS011;1680;48.106;11.708;2022-08-21T09:39:08;5.07;;;4.70;;
1831;SDS011;1680;48.106;11.708;2022-08-21T09:41:36;5.07;;;4.60;;
1831;SDS011;1680;48.106;11.708;2022-08-21T09:44:03;4.30;;;3.90;;
1831;SDS011;1680;48.106;11.708;2022-08-21T09:46:30;4.00;;;3.70;;
1831;SDS011;1680;48.106;11.708;2022-08-21T09:48:57;4.53;;;4.10;;
1831;SDS011;1680;48.106;11.708;2022-08-21T09:51:25;4.50;;;4.10;;
1831;SDS011;1680;48.106;11.708;2022-08-21T09:53:54;4.07;;;3.77;;
1831;SDS011;1680;48.106;11.708;2022-08-21T09:56:27;4.27;;;3.80;;
1831;SDS011;1680;48.106;11.708;2022-08-21T09:59:15;4.70;;;4.20;;
1831;SDS011;1680;48.106;11.708;2022-08-21T10:01:44;4.03;;;3.73;;
1831;SDS011;1680;48.106;11.708;2022-08-21T10:04:11;3.67;;;3.37;;
1831;SDS011;1680;48.106;11.708;2022-08-21T10:06:38;3.73;;;3.43;;
1831;SDS011;1680;48.106;11.708;2022-08-21T10:09:07;3.93;;;3.67;;
1831;SDS011;1680;48.106;11.708;2022-08-21T10:11:34;3.83;;;3.53;;
1831;SDS011;1680;48.106;11.708;2022-08-21T10:14:03;4.20;;;3.90;;
1831;SDS011;1680;48.106;11.708;2022-08-21T10:16:33;4.20;;;3.80;;
1831;SDS011;1680;48.106;11.708;2022-08-21T10:19:09;3.63;;;3.33;;
1831;SDS011;1680;48.106;11.708;2022-08-21T10:21:40;3.97;;;3.67;;
1831;SDS011;1680;48.106;11.708;2022-08-21T10:24:11;3.53;;;3.27;;
1831;SDS011;1680;48.106;11.708;2022-08-21T10:26:43;4.00;;;3.70;;
1831;SDS011;1680;48.106;11.708;2022-08-21T10:29:14;3.80;;;3.50;;
1831;SDS011;1680;48.106;11.708;2022-08-21T10:31:44;4.40;;;3.50;;
1831;SDS011;1680;48.106;11.708;2022-08-21T10:34:18;3.50;;;3.30;;
1831;SDS011;1680;48.106;11.708;2022-08-21T10:36:51;3.83;;;3.50;;
1831;SDS011;1680;48.106;11.708;2022-08-21T10:39:22;6.17;;;3.67;;
1831;SDS011;1680;48.106;11.708;2022-08-21T10:41:58;3.63;;;3.33;;
1831;SDS011;1680;48.106;11.708;2022-08-21T10:44:30;3.70;;;3.40;;
1831;SDS011;1680;48.106;11.708;2022-08-21T10:47:01;3.10;;;2.90;;
1831;SDS011;1680;48.106;11.708;2022-08-21T10:49:31;3.30;;;3.10;;
1831;SDS011;1680;48.106;11.708;2022-08-21T10:52:04;3.17;;;2.97;;
1831;SDS011;1680;48.106;11.708;2022-08-21T10:54:37;3.77;;;3.47;;
1831;SDS011;1680;48.106;11.708;2022-08-21T10:57:09;4.00;;;3.70;;
1831;SDS011;1680;48.106;11.708;2022-08-21T10:59:40;3.63;;;3.43;;
1831;SDS011;1680;48.106;11.708;2022-08-21T11:02:09;3.23;;;3.03;;
1831;SDS011;1680;48.106;11.708;2022-08-21T11:04:38;3.80;;;3.50;;
1831;SDS011;1680;48.106;11.708;2022-08-21T11:07:18;3.60;;;3.30;;
1831;SDS011;1680;48.106;11.708;2022-08-21T11:09:47;3.63;;;3.43;;
1831;SDS011;1680;48.106;11.708;2022-08-21T11:12:17;3.17;;;2.97;;
1831;SDS011;1680;48.106;11.708;2022-08-21T11:14:47;3.50;;;3.27;;
1831;SDS011;1680;48.106;11.708;2022-08-21T11:17:16;3.20;;;3.00;;
1831;SDS011;1680;48.106;11.708;2022-08-21T11:19:45;3.67;;;3.37;;
1831;SDS011;1680;48.106;11.708;2022-08-21T11:22:13;4.27;;;3.27;;
1831;SDS011;1680;48.106;11.708;2022-08-21T11:24:42;3.47;;;3.17;;
1831;SDS011;1680;48.106;11.708;2022-08-21T11:27:16;4.10;;;3.80;;
1831;SDS011;1680;48.106;11.708;2022-08-21T11:29:45;3.87;;;3.57;;
1831;SDS011;1680;48.106;11.708;2022-08-21T11:32:24;3.67;;;3.37;;
1831;SDS011;1680;48.106;11.708;2022-08-21T11:34:54;4.27;;;3.93;;
1831;SDS011;1680;48.106;11.708;2022-08-21T11:37:26;3.80;;;3.47;;
1831;SDS011;1680;48.106;11.708;2022-08-21T11:40:00;6.10;;;4.03;;
1831;SDS011;1680;48.106;11.708;2022-08-21T11:42:31;3.60;;;3.30;;
1831;SDS011;1680;48.106;11.708;2022-08-21T11:45:02;4.50;;;4.10;;
1831;SDS011;1680;48.106;11.708;2022-08-21T11:47:37;4.73;;;4.40;;
1831;SDS011;1680;48.106;11.708;2022-08-21T11:50:12;4.23;;;3.83;;
1831;SDS011;1680;48.106;11.708;2022-08-21T11:52:40;4.57;;;4.27;;
1831;SDS011;1680;48.106;11.708;2022-08-21T11:55:11;3.77;;;3.57;;
1831;SDS011;1680;48.106;11.708;2022-08-21T11:57:43;3.60;;;3.30;;
1831;SDS011;1680;48.106;11.708;2022-08-21T12:00:15;4.10;;;3.80;;
1831;SDS011;1680;48.106;11.708;2022-08-21T12:02:50;3.90;;;3.60;;
1831;SDS011;1680;48.106;11.708;2022-08-21T12:05:28;3.03;;;2.83;;
1831;SDS011;1680;48.106;11.708;2022-08-21T12:08:00;3.40;;;3.20;;
1831;SDS011;1680;48.106;11.708;2022-08-21T12:10:31;3.60;;;3.30;;
1831;SDS011;1680;48.106;11.708;2022-08-21T12:13:06;3.00;;;2.80;;
1831;SDS011;1680;48.106;11.708;2022-08-21T12:15:34;3.40;;;3.10;;
1831;SDS011;1680;48.106;11.708;2022-08-21T12:18:01;4.17;;;3.00;;
1831;SDS011;1680;48.106;11.708;2022-08-21T12:20:36;4.97;;;3.30;;
1831;SDS011;1680;48.106;11.708;2022-08-21T12:23:05;3.40;;;3.10;;
1831;SDS011;1680;48.106;11.708;2022-08-21T12:25:36;3.57;;;3.27;;
1831;SDS011;1680;48.106;11.708;2022-08-21T12:28:06;3.50;;;3.20;;
1831;SDS011;1680;48.106;11.708;2022-08-21T12:30:35;3.30;;;3.00;;
1831;SDS011;1680;48.106;11.708;2022-08-21T12:33:03;3.90;;;3.60;;
1831;SDS011;1680;48.106;11.708;2022-08-21T12:35:31;3.77;;;3.50;;
1831;SDS011;1680;48.106;11.708;2022-08-21T12:37:59;4.30;;;4.00;;
1831;SDS011;1680;48.106;11.708;2022-08-21T12:40:30;4.50;;;4.20;;
1831;SDS011;1680;48.106;11.708;2022-08-21T12:42:57;3.93;;;3.63;;
1831;SDS011;1680;48.106;11.708;2022-08-21T12:45:27;4.10;;;3.80;;
1831;SDS011;1680;48.106;11.708;2022-08-21T12:47:56;3.50;;;3.30;;
1831;SDS011;1680;48.106;11.708;2022-08-21T12:50:26;4.40;;;4.00;;
1831;SDS011;1680;48.106;11.708;2022-08-21T12:52:57;4.87;;;4.10;;
1831;SDS011;1680;48.106;11.708;2022-08-21T12:55:27;3.50;;;3.30;;
1831;SDS011;1680;48.106;11.708;2022-08-21T12:57:53;4.00;;;3.60;;
1831;SDS011;1680;48.106;11.708;2022-08-21T13:00:21;3.90;;;3.60;;
1831;SDS011;1680;48.106;11.708;2022-08-21T13:02:48;3.33;;;3.13;;
1831;SDS011;1680;48.106;11.708;2022-08-21T13:05:19;3.60;;;3.30;;
1831;SDS011;1680;48.106;11.708;2022-08-21T13:07:47;3.97;;;3.67;;
1831;SDS011;1680;48.106;11.708;2022-08-21T13:10:16;4.90;;;3.30;;
1831;SDS011;1680;48.106;11.708;2022-08-21T13:12:44;3.40;;;3.10;;
1831;SDS011;1680;48.106;11.708;2022-08-21T13:15:12;3.53;;;3.33;;
1831;SDS011;1680;48.106;11.708;2022-08-21T13:17:41;4.10;;;3.60;;
1831;SDS011;1680;48.106;11.708;2022-08-21T13:20:09;3.37;;;3.17;;
1831;SDS011;1680;48.106;11.708;2022-08-21T13:22:45;3.27;;;3.00;;
1831;SDS011;1680;48.106;11.708;2022-08-21T13:25:12;3.73;;;3.40;;
1831;SDS011;1680;48.106;11.708;2022-08-21T13:27:40;3.23;;;3.03;;
1831;SDS011;1680;48.106;11.708;2022-08-21T13:30:08;4.70;;;3.40;;
1831;SDS011;1680;48.106;11.708;2022-08-21T13:32:37;3.67;;;3.37;;
1831;SDS011;1680;48.106;11.708;2022-08-21T13:35:10;3.90;;;3.60;;
1831;SDS011;1680;48.106;11.708;2022-08-21T13:37:38;3.40;;;3.10;;
1831;SDS011;1680;48.106;11.708;2022-08-21T13:40:09;3.50;;;3.20;;
1831;SDS011;1680;48.106;11.708;2022-08-21T13:42:38;3.77;;;3.40;;
1831;SDS011;1680;48.106;11.708;2022-08-21T13:45:10;3.30;;;3.10;;
1831;SDS011;1680;48.106;11.708;2022-08-21T13:47:37;3.00;;;2.80;;
1831;SDS011;1680;48.106;11.708;2022-08-21T13:50:04;3.57;;;3.30;;
1831;SDS011;1680;48.106;11.708;2022-08-21T13:52:32;3.63;;;3.40;;
1831;SDS011;1680;48.106;11.708;2022-08-21T13:55:00;3.90;;;3.60;;
1831;SDS011;1680;48.106;11.708;2022-08-21T13:57:30;4.00;;;3.60;;
1831;SDS011;1680;48.106;11.708;2022-08-21T14:00:11;3.87;;;3.57;;
1831;SDS011;1680;48.106;11.708;2022-08-21T14:02:38;3.60;;;3.30;;
1831;SDS011;1680;48.106;11.708;2022-08-21T14:05:06;4.07;;;3.77;;
1831;SDS011;1680;48.106;11.708;2022-08-21T14:07:33;4.00;;;3.70;;
1831;SDS011;1680;48.106;11.708;2022-08-21T14:10:01;3.53;;;3.23;;
1831;SDS011;1680;48.106;11.708;2022-08-21T14:12:40;3.70;;;3.40;;
1831;SDS011;1680;48.106;11.708;2022-08-21T14:15:08;4.07;;;3.77;;
1831;SDS011;1680;48.106;11.708;2022-08-21T14:17:36;3.20;;;3.00;;
1831;SDS011;1680;48.106;11.708;2022-08-21T14:20:04;3.60;;;3.30;;
1831;SDS011;1680;48.106;11.708;2022-08-21T14:22:36;3.60;;;3.30;;
1831;SDS011;1680;48.106;11.708;2022-08-21T14:25:04;3.83;;;3.53;;
1831;SDS011;1680;48.106;11.708;2022-08-21T14:27:32;3.77;;;3.10;;
1831;SDS011;1680;48.106;11.708;2022-08-21T14:29:59;3.93;;;3.63;;
1831;SDS011;1680;48.106;11.708;2022-08-21T14:32:28;4.10;;;3.50;;
1831;SDS011;1680;48.106;11.708;2022-08-21T14:34:55;3.53;;;3.30;;
1831;SDS011;1680;48.106;11.708;2022-08-21T14:37:22;3.50;;;3.30;;
1831;SDS011;1680;48.106;11.708;2022-08-21T14:39:48;4.10;;;3.60;;
1831;SDS011;1680;48.106;11.708;2022-08-21T14:42:15;3.20;;;3.00;;
1831;SDS011;1680;48.106;11.708;2022-08-21T14:44:43;3.50;;;3.20;;
1831;SDS011;1680;48.106;11.708;2022-08-21T14:47:09;3.00;;;2.80;;
1831;SDS011;1680;48.106;11.708;2022-08-21T14:49:36;3.50;;;3.30;;
1831;SDS011;1680;48.106;11.708;2022-08-21T14:52:03;3.20;;;2.90;;
1831;SDS011;1680;48.106;11.708;2022-08-21T14:54:30;3.60;;;3.30;;
1831;SDS011;1680;48.106;11.708;2022-08-21T14:56:56;3.53;;;3.23;;
1831;SDS011;1680;48.106;11.708;2022-08-21T14:59:23;3.33;;;3.13;;
1831;SDS011;1680;48.106;11.708;2022-08-21T15:01:52;3.70;;;3.40;;
1831;SDS011;1680;48.106;11.708;2022-08-21T15:04:18;3.20;;;2.90;;
1831;SDS011;1680;48.106;11.708;2022-08-21T15:06:45;4.20;;;3.90;;